createdAt,value
2017-06-24T00:00:02.031Z,21.01
2017-06-24T00:00:06.644Z,21.03
2017-06-24T00:00:11.069Z,21.03
2017-06-24T00:00:15.376Z,20.96
2017-06-24T00:00:19.681Z,21.08
2017-06-24T00:00:23.983Z,21.09
2017-06-24T00:00:28.295Z,21
2017-06-24T00:00:32.724Z,20.94
2017-06-24T00:00:37.030Z,21
2017-06-24T00:00:41.456Z,20.96
2017-06-24T00:00:45.881Z,20.94
2017-06-24T00:00:50.311Z,21.05
2017-06-24T00:00:54.622Z,21.06
2017-06-24T00:00:59.046Z,21.05
2017-06-24T00:01:03.471Z,21.08
2017-06-24T00:01:07.661Z,21
2017-06-24T00:01:11.970Z,21
2017-06-24T00:01:16.397Z,21.01
2017-06-24T00:01:20.708Z,21.03
2017-06-24T00:01:25.130Z,20.96
2017-06-24T00:01:29.432Z,21
2017-06-24T00:01:33.860Z,21.03
2017-06-24T00:01:38.313Z,20.98
2017-06-24T00:01:42.618Z,21.03
2017-06-24T00:01:47.051Z,21.01
2017-06-24T00:01:51.477Z,21.05
2017-06-24T00:01:55.908Z,20.93
2017-06-24T00:02:00.144Z,21.01
2017-06-24T00:02:04.450Z,21
2017-06-24T00:02:08.876Z,20.97
2017-06-24T00:02:13.066Z,21.05
2017-06-24T00:02:17.496Z,21.05
2017-06-24T00:02:21.926Z,21.01
2017-06-24T00:02:26.348Z,21.12
2017-06-24T00:02:30.773Z,21.01
2017-06-24T00:02:35.203Z,20.94
2017-06-24T00:02:39.508Z,20.97
2017-06-24T00:02:43.938Z,21.03
2017-06-24T00:02:48.360Z,20.94
2017-06-24T00:02:52.782Z,21.01
2017-06-24T00:02:57.201Z,20.93
2017-06-24T00:03:01.621Z,20.94
2017-06-24T00:03:06.027Z,20.94
2017-06-24T00:03:10.464Z,21.06
2017-06-24T00:03:14.906Z,21
2017-06-24T00:03:19.336Z,20.97
2017-06-24T00:03:23.757Z,21
2017-06-24T00:03:28.063Z,21.08
2017-06-24T00:03:32.490Z,20.94
2017-06-24T00:03:36.916Z,21
2017-06-24T00:03:41.105Z,21
2017-06-24T00:03:45.525Z,20.96
2017-06-24T00:03:49.943Z,20.98
2017-06-24T00:03:54.248Z,21.05
2017-06-24T00:03:58.561Z,21
2017-06-24T00:04:02.983Z,21.03
2017-06-24T00:04:07.407Z,21.08
2017-06-24T00:04:11.824Z,20.97
2017-06-24T00:04:16.245Z,21.08
2017-06-24T00:04:20.678Z,21.01
2017-06-24T00:04:24.986Z,21.01
2017-06-24T00:04:29.402Z,21.03
2017-06-24T00:04:33.706Z,21.08
2017-06-24T00:04:38.124Z,20.96
2017-06-24T00:04:42.435Z,20.93
2017-06-24T00:04:46.888Z,20.96
2017-06-24T00:04:51.071Z,20.97
2017-06-24T00:04:55.492Z,21
2017-06-24T00:04:59.794Z,21.01
2017-06-24T00:05:04.103Z,21.03
2017-06-24T00:05:08.776Z,21.03
2017-06-24T00:05:13.199Z,21
2017-06-24T00:05:17.621Z,20.97
2017-06-24T00:05:22.048Z,21.08
2017-06-24T00:05:26.479Z,20.97
2017-06-24T00:05:30.785Z,20.98
2017-06-24T00:05:35.086Z,21.03
2017-06-24T00:05:39.392Z,21.05
2017-06-24T00:05:43.580Z,20.96
2017-06-24T00:05:48.008Z,20.98
2017-06-24T00:05:52.335Z,21
2017-06-24T00:05:56.756Z,21.03
2017-06-24T00:06:01.184Z,21
2017-06-24T00:06:05.612Z,21
2017-06-24T00:06:10.034Z,20.98
2017-06-24T00:06:14.469Z,21.05
2017-06-24T00:06:18.891Z,20.98
2017-06-24T00:06:23.317Z,21.03
2017-06-24T00:06:27.509Z,21.05
2017-06-24T00:06:31.822Z,21
2017-06-24T00:06:36.242Z,21.05
2017-06-24T00:06:40.426Z,21.01
2017-06-24T00:06:44.728Z,21.03
2017-06-24T00:06:49.149Z,21.06
2017-06-24T00:06:53.572Z,20.98
2017-06-24T00:06:57.991Z,21.08
2017-06-24T00:07:02.618Z,21.08
2017-06-24T00:07:06.804Z,21
2017-06-24T00:07:11.112Z,21.01
2017-06-24T00:07:15.432Z,21.03
2017-06-24T00:07:19.882Z,21.03
2017-06-24T00:07:24.302Z,21.06
2017-06-24T00:07:28.726Z,21.09
2017-06-24T00:07:33.026Z,21.03
2017-06-24T00:07:37.335Z,20.98
2017-06-24T00:07:41.788Z,21
2017-06-24T00:07:46.212Z,21
2017-06-24T00:07:50.631Z,21.03
2017-06-24T00:07:54.934Z,21.08
2017-06-24T00:07:59.250Z,21.03
2017-06-24T00:08:03.733Z,21.05
2017-06-24T00:08:08.155Z,20.98
2017-06-24T00:08:12.575Z,21.08
2017-06-24T00:08:16.884Z,20.96
2017-06-24T00:08:21.315Z,21.01
2017-06-24T00:08:25.738Z,21.08
2017-06-24T00:08:29.926Z,21.05
2017-06-24T00:08:34.230Z,21.05
2017-06-24T00:08:38.649Z,21
2017-06-24T00:08:42.953Z,20.98
2017-06-24T00:08:47.266Z,20.98
2017-06-24T00:08:51.571Z,21.01
2017-06-24T00:08:55.992Z,21.01
2017-06-24T00:09:00.300Z,21.01
2017-06-24T00:09:04.729Z,21.05
2017-06-24T00:09:09.161Z,21
2017-06-24T00:09:13.357Z,21.01
2017-06-24T00:09:17.779Z,20.98
2017-06-24T00:09:21.966Z,21.06
2017-06-24T00:09:26.269Z,21
2017-06-24T00:09:30.696Z,21.01
2017-06-24T00:09:35.003Z,21.01
2017-06-24T00:09:39.424Z,21.03
2017-06-24T00:09:43.728Z,21.05
2017-06-24T00:09:48.032Z,21.01
2017-06-24T00:09:52.337Z,20.97
2017-06-24T00:09:56.765Z,20.96
2017-06-24T00:10:01.073Z,21.03
2017-06-24T00:10:05.493Z,20.97
2017-06-24T00:10:09.916Z,21
2017-06-24T00:10:14.229Z,21
2017-06-24T00:10:18.534Z,21.03
2017-06-24T00:10:22.960Z,21.06
2017-06-24T00:10:27.383Z,20.98
2017-06-24T00:10:31.566Z,21.08
2017-06-24T00:10:35.991Z,20.98
2017-06-24T00:10:40.423Z,21
2017-06-24T00:10:44.725Z,21.12
2017-06-24T00:10:49.155Z,20.98
2017-06-24T00:10:53.580Z,21.01
2017-06-24T00:10:57.887Z,21.03
2017-06-24T00:11:02.412Z,21
2017-06-24T00:11:06.835Z,21.01
2017-06-24T00:11:11.024Z,21.03
2017-06-24T00:11:15.210Z,21
2017-06-24T00:11:19.634Z,21.08
2017-06-24T00:11:24.066Z,21.03
2017-06-24T00:11:28.490Z,21.03
2017-06-24T00:11:32.677Z,21.05
2017-06-24T00:11:36.984Z,21
2017-06-24T00:11:41.293Z,21
2017-06-24T00:11:45.629Z,21.01
2017-06-24T00:11:50.054Z,20.93
2017-06-24T00:11:54.356Z,21.03
2017-06-24T00:11:58.662Z,21.08
2017-06-24T00:12:03.390Z,21.01
2017-06-24T00:12:07.822Z,20.93
2017-06-24T00:12:12.245Z,20.98
2017-06-24T00:12:16.667Z,20.96
2017-06-24T00:12:21.086Z,21
2017-06-24T00:12:25.512Z,21.08
2017-06-24T00:12:29.936Z,21.01
2017-06-24T00:12:34.243Z,21.01
2017-06-24T00:12:38.546Z,20.91
2017-06-24T00:12:42.962Z,21.03
2017-06-24T00:12:47.386Z,20.97
2017-06-24T00:12:51.814Z,20.97
2017-06-24T00:12:56.233Z,21
2017-06-24T00:13:00.537Z,21.05
2017-06-24T00:13:04.960Z,21.01
2017-06-24T00:13:09.383Z,20.93
2017-06-24T00:13:13.698Z,20.97
2017-06-24T00:13:18.121Z,20.94
2017-06-24T00:13:22.539Z,20.96
2017-06-24T00:13:26.959Z,20.97
2017-06-24T00:13:31.383Z,21.01
2017-06-24T00:13:35.701Z,20.97
2017-06-24T00:13:40.124Z,21
2017-06-24T00:13:44.443Z,20.94
2017-06-24T00:13:48.864Z,20.96
2017-06-24T00:13:53.175Z,21.01
2017-06-24T00:13:57.604Z,21.01
2017-06-24T00:14:02.039Z,21.05
2017-06-24T00:14:06.465Z,20.96
2017-06-24T00:14:10.891Z,20.93
2017-06-24T00:14:15.198Z,21.01
2017-06-24T00:14:19.388Z,20.91
2017-06-24T00:14:23.723Z,20.97
2017-06-24T00:14:28.148Z,20.93
2017-06-24T00:14:32.453Z,20.9
2017-06-24T00:14:36.875Z,20.97
2017-06-24T00:14:41.187Z,20.98
2017-06-24T00:14:45.376Z,21.01
2017-06-24T00:14:49.682Z,20.88
2017-06-24T00:14:54.103Z,20.98
2017-06-24T00:14:58.531Z,20.97
2017-06-24T00:15:03.016Z,20.97
2017-06-24T00:15:07.467Z,20.98
2017-06-24T00:15:11.890Z,21.01
2017-06-24T00:15:16.311Z,20.94
2017-06-24T00:15:20.622Z,21
2017-06-24T00:15:25.055Z,20.87
2017-06-24T00:15:29.484Z,20.96
2017-06-24T00:15:33.797Z,20.93
2017-06-24T00:15:38.222Z,20.9
2017-06-24T00:15:42.647Z,20.93
2017-06-24T00:15:47.072Z,20.98
2017-06-24T00:15:51.499Z,20.88
2017-06-24T00:15:55.923Z,20.88
2017-06-24T00:16:00.343Z,20.88
2017-06-24T00:16:04.699Z,20.87
2017-06-24T00:16:09.130Z,20.96
2017-06-24T00:16:13.553Z,20.97
2017-06-24T00:16:17.859Z,20.94
2017-06-24T00:16:22.280Z,20.88
2017-06-24T00:16:26.467Z,20.94
2017-06-24T00:16:30.777Z,20.96
2017-06-24T00:16:35.095Z,20.9
2017-06-24T00:16:39.285Z,20.91
2017-06-24T00:16:43.722Z,20.85
2017-06-24T00:16:48.025Z,20.88
2017-06-24T00:16:52.332Z,20.83
2017-06-24T00:16:56.760Z,20.88
2017-06-24T00:17:01.060Z,20.9
2017-06-24T00:17:05.477Z,20.85
2017-06-24T00:17:09.899Z,20.88
2017-06-24T00:17:14.206Z,20.88
2017-06-24T00:17:18.521Z,20.83
2017-06-24T00:17:22.952Z,20.88
2017-06-24T00:17:27.371Z,20.83
2017-06-24T00:17:31.798Z,20.87
2017-06-24T00:17:36.219Z,20.9
2017-06-24T00:17:40.523Z,20.91
2017-06-24T00:17:44.979Z,20.81
2017-06-24T00:17:49.406Z,20.96
2017-06-24T00:17:53.587Z,20.88
2017-06-24T00:17:58.010Z,20.88
2017-06-24T00:18:02.587Z,20.87
2017-06-24T00:18:07.011Z,20.87
2017-06-24T00:18:11.312Z,20.81
2017-06-24T00:18:15.614Z,20.88
2017-06-24T00:18:19.917Z,20.83
2017-06-24T00:18:24.344Z,20.91
2017-06-24T00:18:28.777Z,20.91
2017-06-24T00:18:33.202Z,20.85
2017-06-24T00:18:37.503Z,20.93
2017-06-24T00:18:41.921Z,20.93
2017-06-24T00:18:46.346Z,20.88
2017-06-24T00:18:50.766Z,20.83
2017-06-24T00:18:55.072Z,20.91
2017-06-24T00:18:59.501Z,20.87
2017-06-24T00:19:03.693Z,20.94
2017-06-24T00:19:08.121Z,20.91
2017-06-24T00:19:12.548Z,20.94
2017-06-24T00:19:16.966Z,20.91
2017-06-24T00:19:21.389Z,20.93
2017-06-24T00:19:25.818Z,20.91
2017-06-24T00:19:30.244Z,20.91
2017-06-24T00:19:34.664Z,20.88
2017-06-24T00:19:39.089Z,20.9
2017-06-24T00:19:43.398Z,20.91
2017-06-24T00:19:47.819Z,20.91
2017-06-24T00:19:52.128Z,20.91
2017-06-24T00:19:56.563Z,20.88
2017-06-24T00:20:00.748Z,20.9
2017-06-24T00:20:05.528Z,20.85
2017-06-24T00:20:09.946Z,20.87
2017-06-24T00:20:14.370Z,20.9
2017-06-24T00:20:18.571Z,20.88
2017-06-24T00:20:22.996Z,20.9
2017-06-24T00:20:27.420Z,20.88
2017-06-24T00:20:31.840Z,20.87
2017-06-24T00:20:36.267Z,20.91
2017-06-24T00:20:40.722Z,20.88
2017-06-24T00:20:44.909Z,20.85
2017-06-24T00:20:49.096Z,20.85
2017-06-24T00:20:53.518Z,20.87
2017-06-24T00:20:57.825Z,20.91
2017-06-24T00:21:02.462Z,20.83
2017-06-24T00:21:06.882Z,20.85
2017-06-24T00:21:11.300Z,20.87
2017-06-24T00:21:15.605Z,20.9
2017-06-24T00:21:20.028Z,20.87
2017-06-24T00:21:24.454Z,20.76
2017-06-24T00:21:28.877Z,20.91
2017-06-24T00:21:33.299Z,20.83
2017-06-24T00:21:37.718Z,20.91
2017-06-24T00:21:41.918Z,20.79
2017-06-24T00:21:46.235Z,20.9
2017-06-24T00:21:50.545Z,20.75
2017-06-24T00:21:54.966Z,20.9
2017-06-24T00:21:59.384Z,20.78
2017-06-24T00:22:03.812Z,20.79
2017-06-24T00:22:08.012Z,20.9
2017-06-24T00:22:12.435Z,20.85
2017-06-24T00:22:16.737Z,20.87
2017-06-24T00:22:21.162Z,20.82
2017-06-24T00:22:25.597Z,20.79
2017-06-24T00:22:29.787Z,20.9
2017-06-24T00:22:34.208Z,20.87
2017-06-24T00:22:38.518Z,20.85
2017-06-24T00:22:42.838Z,20.79
2017-06-24T00:22:47.264Z,20.85
2017-06-24T00:22:51.691Z,20.87
2017-06-24T00:22:56.116Z,20.88
2017-06-24T00:23:00.428Z,20.83
2017-06-24T00:23:04.963Z,20.87
2017-06-24T00:23:09.388Z,20.76
2017-06-24T00:23:13.846Z,20.85
2017-06-24T00:23:18.271Z,20.82
2017-06-24T00:23:22.699Z,20.85
2017-06-24T00:23:27.126Z,20.81
2017-06-24T00:23:31.434Z,20.76
2017-06-24T00:23:35.865Z,20.75
2017-06-24T00:23:40.167Z,20.82
2017-06-24T00:23:44.472Z,20.87
2017-06-24T00:23:48.893Z,20.82
2017-06-24T00:23:53.317Z,20.76
2017-06-24T00:23:57.743Z,20.78
2017-06-24T00:24:02.048Z,20.79
2017-06-24T00:24:06.354Z,20.79
2017-06-24T00:24:10.777Z,20.83
2017-06-24T00:24:15.197Z,20.85
2017-06-24T00:24:19.634Z,20.83
2017-06-24T00:24:24.056Z,20.87
2017-06-24T00:24:28.492Z,20.83
2017-06-24T00:24:32.677Z,20.72
2017-06-24T00:24:37.099Z,20.85
2017-06-24T00:24:41.526Z,20.82
2017-06-24T00:24:45.965Z,20.72
2017-06-24T00:24:50.385Z,20.88
2017-06-24T00:24:54.813Z,20.75
2017-06-24T00:24:59.235Z,20.75
2017-06-24T00:25:03.544Z,20.76
2017-06-24T00:25:07.870Z,20.78
2017-06-24T00:25:12.287Z,20.87
2017-06-24T00:25:16.707Z,20.73
2017-06-24T00:25:21.014Z,20.71
2017-06-24T00:25:25.214Z,20.75
2017-06-24T00:25:29.637Z,20.82
2017-06-24T00:25:34.057Z,20.72
2017-06-24T00:25:38.479Z,20.76
2017-06-24T00:25:42.914Z,20.73
2017-06-24T00:25:47.336Z,20.73
2017-06-24T00:25:51.675Z,20.76
2017-06-24T00:25:55.977Z,20.73
2017-06-24T00:26:00.399Z,20.73
2017-06-24T00:26:04.962Z,20.76
2017-06-24T00:26:09.382Z,20.73
2017-06-24T00:26:13.696Z,20.75
2017-06-24T00:26:17.998Z,20.78
2017-06-24T00:26:22.423Z,20.75
2017-06-24T00:26:26.732Z,20.73
2017-06-24T00:26:31.040Z,20.72
2017-06-24T00:26:35.504Z,20.76
2017-06-24T00:26:39.930Z,20.71
2017-06-24T00:26:44.355Z,20.73
2017-06-24T00:26:48.779Z,20.71
2017-06-24T00:26:53.207Z,20.75
2017-06-24T00:26:57.634Z,20.69
2017-06-24T00:27:01.826Z,20.76
2017-06-24T00:27:06.141Z,20.78
2017-06-24T00:27:10.329Z,20.75
2017-06-24T00:27:14.750Z,20.76
2017-06-24T00:27:19.186Z,20.76
2017-06-24T00:27:23.624Z,20.75
2017-06-24T00:27:28.045Z,20.78
2017-06-24T00:27:32.473Z,20.75
2017-06-24T00:27:36.891Z,20.75
2017-06-24T00:27:41.315Z,20.73
2017-06-24T00:27:45.767Z,20.73
2017-06-24T00:27:49.839Z,20.75
2017-06-24T00:27:54.146Z,20.75
2017-06-24T00:27:58.448Z,20.72
2017-06-24T00:28:02.754Z,20.72
2017-06-24T00:28:07.186Z,20.75
2017-06-24T00:28:11.609Z,20.72
2017-06-24T00:28:16.031Z,20.72
2017-06-24T00:28:20.452Z,20.76
2017-06-24T00:28:24.757Z,20.71
2017-06-24T00:28:29.077Z,20.73
2017-06-24T00:28:33.522Z,20.73
2017-06-24T00:28:37.946Z,20.73
2017-06-24T00:28:42.371Z,20.75
2017-06-24T00:28:46.686Z,20.76
2017-06-24T00:28:51.002Z,20.73
2017-06-24T00:28:55.191Z,20.73
2017-06-24T00:28:59.612Z,20.71
2017-06-24T00:29:04.334Z,20.73
2017-06-24T00:29:08.753Z,20.71
2017-06-24T00:29:13.183Z,20.71
2017-06-24T00:29:17.607Z,20.71
2017-06-24T00:29:22.036Z,20.76
2017-06-24T00:29:26.340Z,20.79
2017-06-24T00:29:30.777Z,20.71
2017-06-24T00:29:35.203Z,20.71
2017-06-24T00:29:39.517Z,20.68
2017-06-24T00:29:43.937Z,20.73
2017-06-24T00:29:48.242Z,20.78
2017-06-24T00:29:52.550Z,20.71
2017-06-24T00:29:56.981Z,20.68
2017-06-24T00:30:01.287Z,20.63
2017-06-24T00:30:05.711Z,20.75
2017-06-24T00:30:10.024Z,20.69
2017-06-24T00:30:14.899Z,20.72
2017-06-24T00:30:19.324Z,20.72
2017-06-24T00:30:23.788Z,20.66
2017-06-24T00:30:28.212Z,20.73
2017-06-24T00:30:32.519Z,20.69
2017-06-24T00:30:36.943Z,20.66
2017-06-24T00:30:41.361Z,20.66
2017-06-24T00:30:45.802Z,20.66
2017-06-24T00:30:50.108Z,20.66
2017-06-24T00:30:54.532Z,20.68
2017-06-24T00:30:58.959Z,20.69
2017-06-24T00:31:03.385Z,20.69
2017-06-24T00:31:07.813Z,20.66
2017-06-24T00:31:12.120Z,20.68
2017-06-24T00:31:16.422Z,20.61
2017-06-24T00:31:20.847Z,20.73
2017-06-24T00:31:25.271Z,20.68
2017-06-24T00:31:29.603Z,20.69
2017-06-24T00:31:34.029Z,20.64
2017-06-24T00:31:38.450Z,20.66
2017-06-24T00:31:42.884Z,20.66
2017-06-24T00:31:47.304Z,20.71
2017-06-24T00:31:51.611Z,20.69
2017-06-24T00:31:56.045Z,20.64
2017-06-24T00:32:00.466Z,20.75
2017-06-24T00:32:04.896Z,20.75
2017-06-24T00:32:09.321Z,20.71
2017-06-24T00:32:13.748Z,20.71
2017-06-24T00:32:18.197Z,20.69
2017-06-24T00:32:22.618Z,20.68
2017-06-24T00:32:26.923Z,20.68
2017-06-24T00:32:31.344Z,20.68
2017-06-24T00:32:35.773Z,20.68
2017-06-24T00:32:40.197Z,20.69
2017-06-24T00:32:44.627Z,20.69
2017-06-24T00:32:48.937Z,20.68
2017-06-24T00:32:53.250Z,20.75
2017-06-24T00:32:57.675Z,20.69
2017-06-24T00:33:01.892Z,20.76
2017-06-24T00:33:06.200Z,20.71
2017-06-24T00:33:10.622Z,20.68
2017-06-24T00:33:14.928Z,20.64
2017-06-24T00:33:19.356Z,20.75
2017-06-24T00:33:23.778Z,20.72
2017-06-24T00:33:28.078Z,20.64
2017-06-24T00:33:32.502Z,20.66
2017-06-24T00:33:36.922Z,20.71
2017-06-24T00:33:41.349Z,20.71
2017-06-24T00:33:45.786Z,20.71
2017-06-24T00:33:50.084Z,20.66
2017-06-24T00:33:54.383Z,20.69
2017-06-24T00:33:58.682Z,20.71
2017-06-24T00:34:02.759Z,20.66
2017-06-24T00:34:07.187Z,20.66
2017-06-24T00:34:11.610Z,20.68
2017-06-24T00:34:16.027Z,20.71
2017-06-24T00:34:20.445Z,20.72
2017-06-24T00:34:24.867Z,20.71
2017-06-24T00:34:29.177Z,20.71
2017-06-24T00:34:33.604Z,20.68
2017-06-24T00:34:38.028Z,20.64
2017-06-24T00:34:42.448Z,20.71
2017-06-24T00:34:46.873Z,20.73
2017-06-24T00:34:51.179Z,20.69
2017-06-24T00:34:55.366Z,20.71
2017-06-24T00:34:59.669Z,20.73
2017-06-24T00:35:04.040Z,20.72
2017-06-24T00:35:08.354Z,20.71
2017-06-24T00:35:12.669Z,20.71
2017-06-24T00:35:17.349Z,20.68
2017-06-24T00:35:21.773Z,20.75
2017-06-24T00:35:26.198Z,20.69
2017-06-24T00:35:30.626Z,20.64
2017-06-24T00:35:35.065Z,20.69
2017-06-24T00:35:39.508Z,20.71
2017-06-24T00:35:43.936Z,20.68
2017-06-24T00:35:48.356Z,20.78
2017-06-24T00:35:52.547Z,20.71
2017-06-24T00:35:57.020Z,20.73
2017-06-24T00:36:01.325Z,20.76
2017-06-24T00:36:05.511Z,20.71
2017-06-24T00:36:09.934Z,20.76
2017-06-24T00:36:14.243Z,20.75
2017-06-24T00:36:18.676Z,20.76
2017-06-24T00:36:23.101Z,20.71
2017-06-24T00:36:27.529Z,20.75
2017-06-24T00:36:31.949Z,20.75
2017-06-24T00:36:36.375Z,20.75
2017-06-24T00:36:40.823Z,20.75
2017-06-24T00:36:44.899Z,20.71
2017-06-24T00:36:49.320Z,20.72
2017-06-24T00:36:53.740Z,20.71
2017-06-24T00:36:58.052Z,20.76
2017-06-24T00:37:02.533Z,20.73
2017-06-24T00:37:06.733Z,20.79
2017-06-24T00:37:11.154Z,20.73
2017-06-24T00:37:15.574Z,20.76
2017-06-24T00:37:19.999Z,20.76
2017-06-24T00:37:24.456Z,20.73
2017-06-24T00:37:28.759Z,20.71
2017-06-24T00:37:32.946Z,20.76
2017-06-24T00:37:37.364Z,20.76
2017-06-24T00:37:41.789Z,20.72
2017-06-24T00:37:46.119Z,20.76
2017-06-24T00:37:50.540Z,20.73
2017-06-24T00:37:54.966Z,20.76
2017-06-24T00:37:59.270Z,20.73
2017-06-24T00:38:03.693Z,20.72
2017-06-24T00:38:07.997Z,20.76
2017-06-24T00:38:12.429Z,20.73
2017-06-24T00:38:16.615Z,20.75
2017-06-24T00:38:21.039Z,20.75
2017-06-24T00:38:25.457Z,20.78
2017-06-24T00:38:29.882Z,20.75
2017-06-24T00:38:34.214Z,20.73
2017-06-24T00:38:38.638Z,20.71
2017-06-24T00:38:42.840Z,20.72
2017-06-24T00:38:47.266Z,20.73
2017-06-24T00:38:51.581Z,20.73
2017-06-24T00:38:55.892Z,20.73
2017-06-24T00:39:00.077Z,20.73
2017-06-24T00:39:04.504Z,20.78
2017-06-24T00:39:08.931Z,20.72
2017-06-24T00:39:13.355Z,20.72
2017-06-24T00:39:17.662Z,20.75
2017-06-24T00:39:22.084Z,20.75
2017-06-24T00:39:26.512Z,20.78
2017-06-24T00:39:30.939Z,20.76
2017-06-24T00:39:35.365Z,20.71
2017-06-24T00:39:39.796Z,20.73
2017-06-24T00:39:44.100Z,20.76
2017-06-24T00:39:48.524Z,20.73
2017-06-24T00:39:52.828Z,20.82
2017-06-24T00:39:57.252Z,20.73
2017-06-24T00:40:01.438Z,20.73
2017-06-24T00:40:05.847Z,20.79
2017-06-24T00:40:10.276Z,20.72
2017-06-24T00:40:14.578Z,20.87
2017-06-24T00:40:19.004Z,20.79
2017-06-24T00:40:23.424Z,20.73
2017-06-24T00:40:27.734Z,20.76
2017-06-24T00:40:32.169Z,20.87
2017-06-24T00:40:36.591Z,20.78
2017-06-24T00:40:41.016Z,20.87
2017-06-24T00:40:45.437Z,20.83
2017-06-24T00:40:49.863Z,20.81
2017-06-24T00:40:54.286Z,20.87
2017-06-24T00:40:58.474Z,20.85
2017-06-24T00:41:02.898Z,20.79
2017-06-24T00:41:07.206Z,20.78
2017-06-24T00:41:11.655Z,20.79
2017-06-24T00:41:16.077Z,20.83
2017-06-24T00:41:20.503Z,20.83
2017-06-24T00:41:24.693Z,20.83
2017-06-24T00:41:29.120Z,20.71
2017-06-24T00:41:33.573Z,20.72
2017-06-24T00:41:37.997Z,20.75
2017-06-24T00:41:42.322Z,20.87
2017-06-24T00:41:46.741Z,20.85
2017-06-24T00:41:51.166Z,20.83
2017-06-24T00:41:55.597Z,20.79
2017-06-24T00:42:00.019Z,20.76
2017-06-24T00:42:04.091Z,20.9
2017-06-24T00:42:08.509Z,20.78
2017-06-24T00:42:12.938Z,20.75
2017-06-24T00:42:17.371Z,20.78
2017-06-24T00:42:21.677Z,20.81
2017-06-24T00:42:26.104Z,20.78
2017-06-24T00:42:30.529Z,20.79
2017-06-24T00:42:34.954Z,20.75
2017-06-24T00:42:39.388Z,20.81
2017-06-24T00:42:43.839Z,20.83
2017-06-24T00:42:48.270Z,20.81
2017-06-24T00:42:52.687Z,20.78
2017-06-24T00:42:56.871Z,20.87
2017-06-24T00:43:01.296Z,20.81
2017-06-24T00:43:05.865Z,20.81
2017-06-24T00:43:10.288Z,20.76
2017-06-24T00:43:14.595Z,20.87
2017-06-24T00:43:19.025Z,20.82
2017-06-24T00:43:23.483Z,20.85
2017-06-24T00:43:27.914Z,20.82
2017-06-24T00:43:32.219Z,20.79
2017-06-24T00:43:36.641Z,20.78
2017-06-24T00:43:41.063Z,20.85
2017-06-24T00:43:45.487Z,20.76
2017-06-24T00:43:49.915Z,20.87
2017-06-24T00:43:54.333Z,20.83
2017-06-24T00:43:58.634Z,20.87
2017-06-24T00:44:03.090Z,20.78
2017-06-24T00:44:07.526Z,20.9
2017-06-24T00:44:11.958Z,20.85
2017-06-24T00:44:16.382Z,20.78
2017-06-24T00:44:20.804Z,20.85
2017-06-24T00:44:25.109Z,20.76
2017-06-24T00:44:29.544Z,20.91
2017-06-24T00:44:33.965Z,20.78
2017-06-24T00:44:38.268Z,20.9
2017-06-24T00:44:42.687Z,20.87
2017-06-24T00:44:46.986Z,20.88
2017-06-24T00:44:51.436Z,20.85
2017-06-24T00:44:55.626Z,20.9
2017-06-24T00:44:59.933Z,20.88
2017-06-24T00:45:04.101Z,20.76
2017-06-24T00:45:08.523Z,20.76
2017-06-24T00:45:12.957Z,20.81
2017-06-24T00:45:17.385Z,20.87
2017-06-24T00:45:21.687Z,20.83
2017-06-24T00:45:25.997Z,20.81
2017-06-24T00:45:30.423Z,20.85
2017-06-24T00:45:34.848Z,20.9
2017-06-24T00:45:39.275Z,20.87
2017-06-24T00:45:43.693Z,20.9
2017-06-24T00:45:48.124Z,20.82
2017-06-24T00:45:52.316Z,20.9
2017-06-24T00:45:56.387Z,20.76
2017-06-24T00:46:00.812Z,20.87
2017-06-24T00:46:05.318Z,20.9
2017-06-24T00:46:09.736Z,20.82
2017-06-24T00:46:13.929Z,20.85
2017-06-24T00:46:18.351Z,20.83
2017-06-24T00:46:22.667Z,20.87
2017-06-24T00:46:27.093Z,20.83
2017-06-24T00:46:31.521Z,20.87
2017-06-24T00:46:35.943Z,20.9
2017-06-24T00:46:40.375Z,20.88
2017-06-24T00:46:44.821Z,20.9
2017-06-24T00:46:49.129Z,20.85
2017-06-24T00:46:53.196Z,20.85
2017-06-24T00:46:57.623Z,20.88
2017-06-24T00:47:02.230Z,20.79
2017-06-24T00:47:06.541Z,20.9
2017-06-24T00:47:10.975Z,20.76
2017-06-24T00:47:15.166Z,20.9
2017-06-24T00:47:19.591Z,20.88
2017-06-24T00:47:23.901Z,20.87
2017-06-24T00:47:28.322Z,20.85
2017-06-24T00:47:32.775Z,20.9
2017-06-24T00:47:37.202Z,20.87
2017-06-24T00:47:41.506Z,20.83
2017-06-24T00:47:45.927Z,20.81
2017-06-24T00:47:50.350Z,20.81
2017-06-24T00:47:54.799Z,20.82
2017-06-24T00:47:59.217Z,20.9
2017-06-24T00:48:03.637Z,20.85
2017-06-24T00:48:07.946Z,20.81
2017-06-24T00:48:12.367Z,20.85
2017-06-24T00:48:16.801Z,20.82
2017-06-24T00:48:21.225Z,20.88
2017-06-24T00:48:25.409Z,20.82
2017-06-24T00:48:29.827Z,20.81
2017-06-24T00:48:34.246Z,20.81
2017-06-24T00:48:38.440Z,20.85
2017-06-24T00:48:42.867Z,20.79
2017-06-24T00:48:47.288Z,20.9
2017-06-24T00:48:51.712Z,20.76
2017-06-24T00:48:56.017Z,20.76
2017-06-24T00:49:00.449Z,20.91
2017-06-24T00:49:05.034Z,20.73
2017-06-24T00:49:09.454Z,20.79
2017-06-24T00:49:13.762Z,20.87
2017-06-24T00:49:18.189Z,20.78
2017-06-24T00:49:22.608Z,20.79
2017-06-24T00:49:26.802Z,20.76
2017-06-24T00:49:31.225Z,20.85
2017-06-24T00:49:35.529Z,20.75
2017-06-24T00:49:39.834Z,20.75
2017-06-24T00:49:44.276Z,20.78
2017-06-24T00:49:48.707Z,20.73
2017-06-24T00:49:53.134Z,20.83
2017-06-24T00:49:57.440Z,20.81
2017-06-24T00:50:01.861Z,20.88
2017-06-24T00:50:06.400Z,20.87
2017-06-24T00:50:10.713Z,20.78
2017-06-24T00:50:15.139Z,20.76
2017-06-24T00:50:19.810Z,20.88
2017-06-24T00:50:24.111Z,20.87
2017-06-24T00:50:28.418Z,20.72
2017-06-24T00:50:32.862Z,20.75
2017-06-24T00:50:37.286Z,20.88
2017-06-24T00:50:41.710Z,20.73
2017-06-24T00:50:46.133Z,20.78
2017-06-24T00:50:50.557Z,20.73
2017-06-24T00:50:54.992Z,20.75
2017-06-24T00:50:59.416Z,20.82
2017-06-24T00:51:03.719Z,20.82
2017-06-24T00:51:08.143Z,20.75
2017-06-24T00:51:12.570Z,20.75
2017-06-24T00:51:16.528Z,20.71
2017-06-24T00:51:20.961Z,20.78
2017-06-24T00:51:25.264Z,20.79
2017-06-24T00:51:29.685Z,20.71
2017-06-24T00:51:34.108Z,20.75
2017-06-24T00:51:38.533Z,20.78
2017-06-24T00:51:43.010Z,20.78
2017-06-24T00:51:47.430Z,20.78
2017-06-24T00:51:51.850Z,20.73
2017-06-24T00:51:56.155Z,20.73
2017-06-24T00:52:00.580Z,20.72
2017-06-24T00:52:05.010Z,20.78
2017-06-24T00:52:09.438Z,20.76
2017-06-24T00:52:13.861Z,20.72
2017-06-24T00:52:18.046Z,20.76
2017-06-24T00:52:22.242Z,20.75
2017-06-24T00:52:26.579Z,20.76
2017-06-24T00:52:30.765Z,20.72
2017-06-24T00:52:35.190Z,20.76
2017-06-24T00:52:39.613Z,20.71
2017-06-24T00:52:44.042Z,20.76
2017-06-24T00:52:48.475Z,20.73
2017-06-24T00:52:52.783Z,20.76
2017-06-24T00:52:57.206Z,20.73
2017-06-24T00:53:01.628Z,20.75
2017-06-24T00:53:05.982Z,20.76
2017-06-24T00:53:10.420Z,20.76
2017-06-24T00:53:14.850Z,20.75
2017-06-24T00:53:19.271Z,20.76
2017-06-24T00:53:23.691Z,20.75
2017-06-24T00:53:28.115Z,20.73
2017-06-24T00:53:32.426Z,20.76
2017-06-24T00:53:36.851Z,20.76
2017-06-24T00:53:41.154Z,20.81
2017-06-24T00:53:45.577Z,20.75
2017-06-24T00:53:49.996Z,20.75
2017-06-24T00:53:54.310Z,20.81
2017-06-24T00:53:58.741Z,20.71
2017-06-24T00:54:03.043Z,20.75
2017-06-24T00:54:07.231Z,20.78
2017-06-24T00:54:11.649Z,20.75
2017-06-24T00:54:15.954Z,20.76
2017-06-24T00:54:20.381Z,20.75
2017-06-24T00:54:24.802Z,20.78
2017-06-24T00:54:29.109Z,20.76
2017-06-24T00:54:33.546Z,20.76
2017-06-24T00:54:37.971Z,20.79
2017-06-24T00:54:42.395Z,20.76
2017-06-24T00:54:46.824Z,20.75
2017-06-24T00:54:51.246Z,20.75
2017-06-24T00:54:55.670Z,20.76
2017-06-24T00:54:59.739Z,20.73
2017-06-24T00:55:04.103Z,20.72
2017-06-24T00:55:08.408Z,20.78
2017-06-24T00:55:12.838Z,20.73
2017-06-24T00:55:17.144Z,20.73
2017-06-24T00:55:21.447Z,20.75
2017-06-24T00:55:25.872Z,20.75
2017-06-24T00:55:30.186Z,20.73
2017-06-24T00:55:34.490Z,20.75
2017-06-24T00:55:38.915Z,20.78
2017-06-24T00:55:43.337Z,20.73
2017-06-24T00:55:47.763Z,20.72
2017-06-24T00:55:52.078Z,20.75
2017-06-24T00:55:56.268Z,20.75
2017-06-24T00:56:00.693Z,20.71
2017-06-24T00:56:05.002Z,20.73
2017-06-24T00:56:09.438Z,20.73
2017-06-24T00:56:13.751Z,20.76
2017-06-24T00:56:18.060Z,20.73
2017-06-24T00:56:22.478Z,20.76
2017-06-24T00:56:26.782Z,20.69
2017-06-24T00:56:31.089Z,20.75
2017-06-24T00:56:35.565Z,20.71
2017-06-24T00:56:39.988Z,20.71